Time;durP1;ratioP1;P1;durP2;ratioP2;P2;SDS_P1;SDS_P2;PMS_P1;PMS_P2;Temp;Humidity;BMP_temperature;BMP_pressure;BME280_temperature;BME280_humidity;BME280_pressure;Samples;Min_cycle;Max_cycle;Signal;HPM_P1;HPM_P2
2024/03/04 00:00:46;;;;;;;2.15;0.65;;;;;;;12.88;87.94;99049.25;4995435;28;20049;-78
2024/03/04 00:03:51;;;;;;;1.52;0.70;;;;;;;12.70;88.33;99048.69;4994605;28;20069;-79
2024/03/04 00:06:58;;;;;;;1.45;0.68;;;;;;;12.63;88.59;99053.97;4995593;28;20049;-78
2024/03/04 00:10:03;;;;;;;1.70;0.70;;;;;;;12.61;89.18;99049.78;4995036;28;20069;-79
2024/03/04 00:13:08;;;;;;;1.65;0.70;;;;;;;12.56;89.51;99052.19;4995226;28;20053;-77
2024/03/04 00:16:12;;;;;;;3.40;1.23;;;;;;;12.45;89.86;99066.88;4995048;28;20045;-81
2024/03/04 00:19:19;;;;;;;4.18;0.90;;;;;;;12.52;89.67;99065.16;4994215;28;20061;-78
2024/03/04 00:22:24;;;;;;;1.90;0.90;;;;;;;12.55;89.24;99070.19;4998097;28;20053;-80
2024/03/04 00:25:28;;;;;;;1.88;0.80;;;;;;;12.75;88.78;99075.94;5014834;28;20061;-79
2024/03/04 00:28:33;;;;;;;1.58;0.68;;;;;;;12.64;88.64;99087.94;5014801;28;20060;-78
2024/03/04 00:31:37;;;;;;;5.78;0.98;;;;;;;12.66;88.83;99101.25;5014709;28;20421;-78
2024/03/04 00:34:42;;;;;;;1.88;0.80;;;;;;;12.60;88.60;99104.63;5014544;28;20053;-79
2024/03/04 00:37:47;;;;;;;3.63;1.60;;;;;;;12.43;88.86;99097.69;5002539;28;20492;-79
2024/03/04 00:40:51;;;;;;;2.03;0.90;;;;;;;12.67;87.87;99084.06;5014593;28;20053;-79
2024/03/04 00:43:56;;;;;;;1.80;0.60;;;;;;;12.63;88.73;99099.75;5014384;28;20053;-81
2024/03/04 00:47:01;;;;;;;1.15;0.50;;;;;;;12.44;88.15;99092.13;5014380;28;20117;-81
2024/03/04 00:50:05;;;;;;;1.75;0.70;;;;;;;12.46;88.06;99076.63;5014392;28;20053;-79
2024/03/04 00:53:11;;;;;;;1.52;0.63;;;;;;;12.28;88.36;99087.66;5014301;28;20072;-79
2024/03/04 00:56:16;;;;;;;1.52;0.70;;;;;;;12.05;89.82;99081.38;5018511;28;20057;-79
2024/03/04 00:59:23;;;;;;;1.55;0.47;;;;;;;12.32;88.31;99080.91;5014389;28;20049;-79
2024/03/04 01:02:28;;;;;;;2.85;0.68;;;;;;;12.22;88.50;99098.31;5021715;28;20053;-79
2024/03/04 01:05:33;;;;;;;2.05;0.75;;;;;;;12.03;89.28;99079.88;5014197;28;20049;-79
2024/03/04 01:08:40;;;;;;;1.80;0.80;;;;;;;11.95;90.44;99086.13;5013170;28;20057;-79
2024/03/04 01:11:45;;;;;;;2.38;0.80;;;;;;;12.29;87.85;99075.06;5013272;28;20053;-79
2024/03/04 01:14:49;;;;;;;2.25;0.85;;;;;;;12.26;88.65;99070.88;5012875;28;20045;-79
2024/03/04 01:17:53;;;;;;;1.75;0.70;;;;;;;12.35;87.48;99075.19;5013875;28;20053;-78
2024/03/04 01:20:58;;;;;;;1.42;0.77;;;;;;;12.13;87.93;99070.59;5013903;28;20057;-78
2024/03/04 01:24:03;;;;;;;1.65;0.77;;;;;;;11.83;89.25;99079.47;5013898;28;20037;-79
2024/03/04 01:27:08;;;;;;;1.90;1.02;;;;;;;11.65;90.97;99071.59;5013360;28;20045;-78
2024/03/04 01:30:16;;;;;;;2.00;1.00;;;;;;;11.73;90.25;99082.34;5013777;28;20100;-78
2024/03/04 01:33:20;;;;;;;2.83;1.13;;;;;;;11.73;90.04;99084.19;5013555;28;20057;-78
2024/03/04 01:36:24;;;;;;;3.10;1.15;;;;;;;11.86;89.54;99084.50;5001716;28;20473;-78
2024/03/04 01:39:28;;;;;;;3.67;1.60;;;;;;;12.06;88.39;99080.38;5013711;28;20053;-79
2024/03/04 01:42:33;;;;;;;3.33;1.52;;;;;;;11.80;88.99;99090.56;5013789;28;20057;-79
2024/03/04 01:45:37;;;;;;;2.85;1.27;;;;;;;11.59;90.21;99091.09;5013741;28;20069;-78
2024/03/04 01:48:43;;;;;;;2.70;1.30;;;;;;;11.57;90.76;99108.41;5013716;28;20069;-79
2024/03/04 01:51:47;;;;;;;1.90;1.10;;;;;;;11.56;89.29;99106.72;5013556;28;20060;-77
2024/03/04 01:54:55;;;;;;;1.80;0.80;;;;;;;11.02;90.34;99108.28;5013613;28;20053;-78
2024/03/04 01:58:01;;;;;;;2.58;0.93;;;;;;;11.24;89.68;99112.97;5013735;28;20057;-78
2024/03/04 02:01:05;;;;;;;2.45;0.80;;;;;;;11.22;90.06;99127.59;5012866;28;20053;-78
2024/03/04 02:04:11;;;;;;;2.42;1.10;;;;;;;11.70;87.30;99123.00;5014017;28;20060;-77
2024/03/04 02:07:17;;;;;;;2.88;1.08;;;;;;;11.92;85.92;99126.84;5015510;28;20053;-80
2024/03/04 02:10:21;;;;;;;2.03;1.00;;;;;;;11.92;85.55;99121.47;5004996;28;20437;-78
2024/03/04 02:13:27;;;;;;;2.65;1.13;;;;;;;11.46;86.13;99116.81;5004991;28;20045;-78
2024/03/04 02:16:31;;;;;;;1.75;0.90;;;;;;;11.02;88.04;99106.44;5016778;28;20519;-80
2024/03/04 02:19:36;;;;;;;1.70;0.90;;;;;;;11.38;87.61;99106.91;5016911;28;20041;-78
2024/03/04 02:22:41;;;;;;;3.65;1.00;;;;;;;11.09;87.98;99111.97;5017391;28;20113;-79
2024/03/04 02:25:53;;;;;;;3.10;0.98;;;;;;;11.38;87.21;99122.22;5017149;28;20053;-80
2024/03/04 02:29:00;;;;;;;3.58;1.10;;;;;;;11.63;86.20;99126.53;5016417;28;20049;-79
2024/03/04 02:32:05;;;;;;;2.08;1.05;;;;;;;11.89;85.00;99126.34;5016716;28;20057;-79
2024/03/04 02:35:09;;;;;;;2.55;1.10;;;;;;;11.88;85.33;99132.72;5025894;28;20049;-80
2024/03/04 02:38:16;;;;;;;2.03;1.10;;;;;;;11.79;85.49;99134.59;5018175;28;20053;-79
2024/03/04 02:41:21;;;;;;;2.08;1.17;;;;;;;11.74;86.83;99142.34;5023386;28;20378;-79
2024/03/04 02:44:25;;;;;;;2.38;1.50;;;;;;;11.72;86.85;99141.69;5016687;28;20049;-78
2024/03/04 02:47:30;;;;;;;2.33;1.30;;;;;;;11.79;86.54;99142.66;5016577;28;20412;-79
2024/03/04 02:50:34;;;;;;;4.25;2.00;;;;;;;11.70;87.48;99146.38;5015569;28;20053;-78
2024/03/04 02:53:38;;;;;;;3.90;1.95;;;;;;;11.76;87.30;99148.38;5016326;28;20382;-79
2024/03/04 02:56:44;;;;;;;3.47;1.80;;;;;;;11.86;86.98;99162.47;5015923;28;20057;-77
2024/03/04 02:59:48;;;;;;;4.97;2.50;;;;;;;11.95;86.66;99160.63;5015365;28;20053;-78
2024/03/04 03:02:52;;;;;;;3.00;1.67;;;;;;;11.89;86.94;99154.06;5016390;28;20057;-78
2024/03/04 03:05:57;;;;;;;3.60;1.92;;;;;;;11.92;86.28;99153.72;5016196;28;20053;-79
2024/03/04 03:09:04;;;;;;;4.68;1.95;;;;;;;11.84;87.03;99151.06;5016155;28;20049;-78
2024/03/04 03:12:10;;;;;;;3.03;1.92;;;;;;;11.89;86.19;99155.91;5016129;28;20049;-77
2024/03/04 03:15:15;;;;;;;5.82;2.40;;;;;;;11.62;87.14;99167.88;5017711;28;20399;-79
2024/03/04 03:18:19;;;;;;;2.75;1.73;;;;;;;11.60;87.43;99178.75;5034719;28;20049;-78
2024/03/04 03:21:26;;;;;;;3.05;1.63;;;;;;;11.56;87.72;99192.72;5035707;28;20056;-78
2024/03/04 03:24:30;;;;;;;3.58;1.80;;;;;;;11.38;87.92;99194.75;5035352;28;20053;-79
2024/03/04 03:27:35;;;;;;;2.40;1.40;;;;;;;11.27;88.64;99189.72;5035559;28;20058;-77
2024/03/04 03:30:40;;;;;;;3.55;1.75;;;;;;;11.37;88.62;99190.38;5023463;28;20048;-77
2024/03/04 03:33:45;;;;;;;3.25;1.90;;;;;;;11.39;88.99;99188.34;5035409;28;20045;-77
2024/03/04 03:36:49;;;;;;;3.35;1.88;;;;;;;11.36;88.27;99191.38;5023214;28;20044;-78
2024/03/04 03:39:53;;;;;;;1.90;1.20;;;;;;;11.35;89.07;99189.72;5035163;28;20048;-79
2024/03/04 03:42:58;;;;;;;2.58;1.50;;;;;;;11.37;88.96;99196.59;5035187;28;20075;-78
2024/03/04 03:46:02;;;;;;;4.05;1.73;;;;;;;11.42;88.58;99204.16;5022977;28;20100;-77
2024/03/04 03:49:09;;;;;;;3.00;1.83;;;;;;;11.40;88.33;99207.03;5035264;28;20048;-78
2024/03/04 03:52:13;;;;;;;4.50;1.70;;;;;;;11.37;88.75;99211.88;5035364;28;20048;-78
2024/03/04 03:55:18;;;;;;;4.43;1.58;;;;;;;11.44;88.58;99211.03;5034894;28;20044;-81
2024/03/04 03:58:22;;;;;;;4.15;1.63;;;;;;;11.90;86.89;99209.50;5035110;28;20044;-79
2024/03/04 04:01:27;;;;;;;3.80;1.80;;;;;;;11.47;88.55;99217.94;5034989;28;20044;-78
2024/03/04 04:04:31;;;;;;;4.35;1.92;;;;;;;11.47;88.85;99215.25;5035059;28;20053;-78
2024/03/04 04:07:36;;;;;;;2.95;1.60;;;;;;;11.44;88.79;99221.78;5034874;28;20045;-78
2024/03/04 04:10:41;;;;;;;2.67;1.65;;;;;;;11.53;88.81;99222.63;5033599;28;20520;-79
2024/03/04 04:13:45;;;;;;;3.17;1.70;;;;;;;11.59;88.15;99227.31;5016048;28;20057;-79
2024/03/04 04:16:49;;;;;;;2.80;1.73;;;;;;;11.60;88.36;99231.72;5020643;28;20060;-78
2024/03/04 04:19:53;;;;;;;2.78;1.70;;;;;;;11.68;88.02;99226.34;5016111;28;20041;-78
2024/03/04 04:22:58;;;;;;;2.90;1.80;;;;;;;11.70;87.43;99227.03;5014809;28;20049;-79
2024/03/04 04:26:04;;;;;;;3.90;1.83;;;;;;;11.56;87.74;99228.50;5025177;28;20057;-79
2024/03/04 04:29:09;;;;;;;4.03;1.90;;;;;;;11.49;88.42;99237.41;5014827;28;20144;-78
2024/03/04 04:32:13;;;;;;;2.35;1.45;;;;;;;11.57;88.04;99234.72;5025033;28;20532;-78
2024/03/04 04:35:18;;;;;;;3.13;1.88;;;;;;;11.61;88.37;99249.50;5025323;28;20056;-78
2024/03/04 04:38:22;;;;;;;3.05;2.00;;;;;;;11.64;87.61;99250.00;5014311;28;20057;-79
2024/03/04 04:41:27;;;;;;;4.32;2.08;;;;;;;11.53;87.83;99263.75;5025229;28;20060;-78
2024/03/04 04:44:32;;;;;;;9.00;3.97;;;;;;;11.54;87.87;99278.91;5024832;28;20053;-78
2024/03/04 04:47:36;;;;;;;3.83;2.40;;;;;;;11.47;87.41;99277.03;5024737;28;20061;-79
2024/03/04 04:50:41;;;;;;;7.00;2.60;;;;;;;11.44;87.57;99278.22;5014411;28;20053;-79
2024/03/04 04:53:46;;;;;;;2.67;1.75;;;;;;;11.34;88.30;99287.44;5014155;28;20056;-80
2024/03/04 04:56:51;;;;;;;3.58;1.88;;;;;;;11.63;86.99;99291.31;5024838;28;20057;-80
2024/03/04 04:59:56;;;;;;;4.95;2.10;;;;;;;11.55;87.54;99304.75;5013824;28;20100;-78
2024/03/04 05:03:00;;;;;;;3.67;2.03;;;;;;;11.55;87.34;99295.88;5024530;28;20113;-79
2024/03/04 05:06:05;;;;;;;3.47;1.98;;;;;;;11.62;86.66;99284.28;5014210;28;20056;-80
2024/03/04 05:09:09;;;;;;;3.30;2.10;;;;;;;11.36;87.40;99299.69;5014134;28;20048;-77
2024/03/04 05:12:14;;;;;;;2.70;1.80;;;;;;;11.32;87.33;99297.50;5013779;28;20048;-77
2024/03/04 05:15:19;;;;;;;2.90;1.95;;;;;;;11.40;87.13;99303.75;5014073;28;20053;-78
2024/03/04 05:18:23;;;;;;;4.93;1.92;;;;;;;11.43;87.29;99302.56;5012784;28;20148;-78
2024/03/04 05:21:28;;;;;;;3.38;2.25;;;;;;;11.49;86.55;99301.91;5013950;28;20072;-79
2024/03/04 05:24:32;;;;;;;2.95;2.30;;;;;;;11.33;86.85;99301.88;5013149;28;20053;-79
2024/03/04 05:27:38;;;;;;;5.90;2.28;;;;;;;11.34;87.47;99303.53;5013702;28;20511;-80
2024/03/04 05:30:43;;;;;;;3.72;2.30;;;;;;;11.58;86.36;99317.84;5014094;28;20072;-78
2024/03/04 05:33:47;;;;;;;3.85;2.25;;;;;;;11.63;86.59;99314.66;5001722;28;20056;-80
2024/03/04 05:36:52;;;;;;;3.75;2.47;;;;;;;11.55;86.49;99320.88;5013839;28;20385;-77
2024/03/04 05:39:56;;;;;;;3.03;1.80;;;;;;;11.43;86.82;99324.06;5013712;28;20064;-80
2024/03/04 05:43:01;;;;;;;4.18;2.67;;;;;;;11.64;85.93;99330.66;5017041;28;20057;-79
2024/03/04 05:46:06;;;;;;;3.45;2.58;;;;;;;11.69;85.77;99328.34;5017757;28;20052;-78
2024/03/04 05:49:12;;;;;;;3.95;2.90;;;;;;;11.59;85.88;99327.63;5019524;28;20049;-79
2024/03/04 05:52:18;;;;;;;5.45;2.95;;;;;;;11.63;85.98;99314.66;5017894;28;20044;-77
2024/03/04 05:55:22;;;;;;;5.82;3.30;;;;;;;11.50;86.13;99322.41;5002414;28;20045;-79
2024/03/04 05:58:27;;;;;;;4.25;2.92;;;;;;;11.70;86.17;99329.19;5001935;28;20049;-79
2024/03/04 06:01:32;;;;;;;6.05;4.13;;;;;;;11.45;86.90;99322.91;4997927;28;20049;-78
2024/03/04 06:04:37;;;;;;;5.85;4.07;;;;;;;11.44;87.24;99326.59;4997663;28;20386;-77
2024/03/04 06:07:41;;;;;;;5.72;4.10;;;;;;;11.57;87.09;99337.69;4996624;28;20042;-78
2024/03/04 06:10:46;;;;;;;7.38;5.03;;;;;;;11.59;87.71;99350.97;4997179;28;20062;-79
2024/03/04 06:13:50;;;;;;;7.60;4.63;;;;;;;11.65;87.27;99361.88;4997579;28;20053;-79
2024/03/04 06:16:55;;;;;;;6.22;4.75;;;;;;;11.91;86.69;99366.31;4997595;28;20053;-77
2024/03/04 06:19:59;;;;;;;8.70;5.03;;;;;;;11.77;87.32;99366.97;4985387;28;20057;-78
2024/03/04 06:23:04;;;;;;;6.47;5.00;;;;;;;11.85;87.12;99380.44;4997738;28;20061;-77
2024/03/04 06:26:11;;;;;;;6.22;4.85;;;;;;;11.79;87.78;99378.41;4997305;28;20473;-79
2024/03/04 06:29:15;;;;;;;7.78;5.05;;;;;;;11.87;87.70;99384.66;5014347;28;20424;-79
2024/03/04 06:32:20;;;;;;;6.63;5.43;;;;;;;11.87;88.30;99390.03;5016780;28;20135;-78
2024/03/04 06:35:28;;;;;;;6.43;5.13;;;;;;;11.87;88.41;99400.78;5016700;28;20053;-78
2024/03/04 06:38:32;;;;;;;7.18;5.20;;;;;;;11.99;88.15;99404.81;5004555;28;20053;-75
2024/03/04 06:41:37;;;;;;;9.00;6.05;;;;;;;12.08;88.50;99411.88;5016291;28;20068;-76
2024/03/04 06:44:41;;;;;;;8.07;5.88;;;;;;;12.22;88.47;99426.53;5016579;28;20076;-75
2024/03/04 06:47:46;;;;;;;8.98;6.45;;;;;;;12.03;89.46;99438.44;5016718;28;20057;-75
2024/03/04 06:50:51;;;;;;;9.27;6.20;;;;;;;12.08;89.13;99432.56;5016521;28;20053;-78
2024/03/04 06:53:55;;;;;;;18.17;11.15;;;;;;;12.07;89.21;99445.16;5015295;28;20061;-76
2024/03/04 06:57:00;;;;;;;9.73;6.65;;;;;;;12.28;88.86;99445.53;5016305;28;20046;-75
2024/03/04 07:00:11;;;;;;;8.70;6.47;;;;;;;11.97;90.44;99444.50;5015880;28;20046;-75
2024/03/04 07:03:17;;;;;;;12.02;7.38;;;;;;;12.12;89.98;99442.81;5004139;28;20045;-76
2024/03/04 07:06:22;;;;;;;11.07;6.50;;;;;;;12.18;89.60;99446.69;5003451;28;20052;-75
2024/03/04 07:09:27;;;;;;;9.60;6.75;;;;;;;12.10;89.78;99458.28;5016048;28;20057;-74
2024/03/04 07:12:31;;;;;;;8.73;6.13;;;;;;;12.20;89.40;99456.28;5004133;28;20068;-75
2024/03/04 07:15:36;;;;;;;10.00;6.78;;;;;;;12.42;88.97;99464.72;5012441;28;20042;-78
2024/03/04 07:18:40;;;;;;;9.80;6.97;;;;;;;12.68;88.02;99474.28;5022560;28;20393;-80
2024/03/04 07:21:45;;;;;;;10.60;7.03;;;;;;;12.82;87.71;99476.28;5012404;28;20041;-80
2024/03/04 07:24:50;;;;;;;7.30;6.20;;;;;;;12.76;87.56;99477.00;5042340;28;20053;-79
2024/03/04 07:27:55;;;;;;;8.38;6.60;;;;;;;12.95;88.13;99491.94;5038777;28;20049;-78
2024/03/04 07:31:02;;;;;;;8.85;6.32;;;;;;;13.09;88.12;99493.09;5037794;28;20060;-80
2024/03/04 07:34:07;;;;;;;9.68;6.20;;;;;;;13.20;88.44;99490.06;5033804;28;20048;-78
2024/03/04 07:37:11;;;;;;;8.32;5.97;;;;;;;13.34;87.39;99492.88;5035396;28;20044;-80
2024/03/04 07:40:16;;;;;;;6.45;4.95;;;;;;;13.26;86.41;99489.38;5030665;28;20052;-84
2024/03/04 07:43:20;;;;;;;8.77;5.38;;;;;;;13.06;86.01;99494.28;4983727;28;20053;-77
2024/03/04 07:46:25;;;;;;;6.47;4.45;;;;;;;13.11;86.11;99485.72;4992809;28;20057;-78
2024/03/04 07:49:29;;;;;;;6.07;4.50;;;;;;;12.96;85.97;99482.84;4980462;28;20057;-77
2024/03/04 07:52:34;;;;;;;4.72;3.70;;;;;;;13.09;85.96;99488.56;4992723;28;20061;-81
2024/03/04 07:55:38;;;;;;;5.22;3.70;;;;;;;13.39;84.42;99495.91;4992521;28;20057;-80
2024/03/04 07:58:43;;;;;;;4.95;3.80;;;;;;;12.98;85.86;99502.38;4992608;28;20604;-79
2024/03/04 08:01:49;;;;;;;5.35;4.10;;;;;;;13.20;85.53;99506.22;4994298;28;20398;-80
2024/03/04 08:04:53;;;;;;;5.00;3.75;;;;;;;13.11;86.03;99507.28;4995546;28;20061;-80
2024/03/04 08:08:00;;;;;;;6.05;3.97;;;;;;;13.14;85.87;99502.34;4994722;28;20057;-78
2024/03/04 08:11:05;;;;;;;4.97;3.55;;;;;;;13.22;85.34;99509.59;4994837;28;20065;-81
2024/03/04 08:14:09;;;;;;;5.45;3.90;;;;;;;13.27;85.48;99513.44;4995140;28;20378;-79
2024/03/04 08:17:16;;;;;;;5.28;3.78;;;;;;;13.47;84.38;99519.28;4994344;28;20390;-79
2024/03/04 08:20:21;;;;;;;5.43;4.00;;;;;;;13.55;84.01;99519.28;4995459;28;20398;-79
2024/03/04 08:23:26;;;;;;;5.88;4.20;;;;;;;13.65;83.94;99528.81;4995597;28;20045;-78
2024/03/04 08:26:31;;;;;;;5.47;3.92;;;;;;;13.63;83.73;99525.47;4995219;28;20053;-79
2024/03/04 08:29:37;;;;;;;6.72;4.00;;;;;;;13.62;83.90;99531.03;4982892;28;20485;-78
2024/03/04 08:32:44;;;;;;;4.97;3.75;;;;;;;13.72;83.44;99538.94;4994811;28;20172;-79
2024/03/04 08:35:49;;;;;;;8.75;4.13;;;;;;;13.87;83.40;99545.28;4994814;28;20050;-79
2024/03/04 08:38:54;;;;;;;6.55;3.70;;;;;;;13.91;83.59;99535.81;4994074;28;20058;-79
2024/03/04 08:41:59;;;;;;;5.47;3.67;;;;;;;13.93;83.15;99537.31;4982716;28;20049;-80
2024/03/04 08:45:04;;;;;;;6.43;4.38;;;;;;;13.74;83.26;99542.28;4994514;28;20065;-80
2024/03/04 08:48:09;;;;;;;5.53;3.95;;;;;;;13.80;83.13;99544.28;4982711;28;20069;-80
2024/03/04 08:51:14;;;;;;;5.47;3.40;;;;;;;13.86;83.21;99551.69;4994540;28;20107;-80
2024/03/04 08:54:18;;;;;;;4.88;3.38;;;;;;;13.94;83.20;99552.50;4994503;28;20050;-79
2024/03/04 08:57:23;;;;;;;4.65;2.90;;;;;;;13.80;82.98;99552.38;4994588;28;20501;-80
2024/03/04 09:00:27;;;;;;;4.63;3.15;;;;;;;13.78;83.10;99551.69;4995460;28;20049;-78
2024/03/04 09:03:32;;;;;;;5.53;2.97;;;;;;;13.71;83.42;99556.97;4995041;28;20073;-79
2024/03/04 09:06:36;;;;;;;5.40;3.35;;;;;;;13.64;83.28;99570.31;4973651;28;20049;-81
2024/03/04 09:09:42;;;;;;;3.92;2.90;;;;;;;13.50;84.16;99572.88;4995805;28;20049;-80
2024/03/04 09:12:47;;;;;;;6.75;3.63;;;;;;;13.53;84.47;99573.34;4994472;28;20057;-79
2024/03/04 09:15:52;;;;;;;5.47;3.22;;;;;;;13.67;84.33;99574.50;4994131;28;20058;-79
2024/03/04 09:18:57;;;;;;;6.22;3.15;;;;;;;13.42;84.92;99568.34;4994270;28;20500;-80
2024/03/04 09:22:03;;;;;;;6.35;3.35;;;;;;;13.58;85.35;99570.13;4994298;28;20065;-79
2024/03/04 09:25:08;;;;;;;5.43;3.50;;;;;;;13.75;84.78;99570.94;4994138;28;20065;-79
2024/03/04 09:28:14;;;;;;;5.15;3.22;;;;;;;13.83;84.60;99565.50;4994175;28;20390;-79
2024/03/04 09:31:19;;;;;;;4.78;3.35;;;;;;;13.62;85.09;99566.94;4994228;28;20386;-79
2024/03/04 09:34:24;;;;;;;4.03;2.72;;;;;;;13.61;84.87;99576.03;4994094;28;20057;-79
2024/03/04 09:37:28;;;;;;;4.70;3.30;;;;;;;13.73;84.64;99581.91;4982218;28;20058;-79
2024/03/04 09:40:36;;;;;;;5.03;3.00;;;;;;;13.57;84.94;99584.66;4994141;28;20377;-79
2024/03/04 09:43:44;;;;;;;37.53;23.45;;;;;;;13.47;85.40;99594.78;4994184;28;20061;-80
2024/03/04 09:46:50;;;;;;;8.23;5.63;;;;;;;13.48;85.55;99591.09;4994187;28;20046;-79
2024/03/04 09:49:56;;;;;;;5.00;3.33;;;;;;;13.35;86.10;99597.00;4994060;28;20381;-80
2024/03/04 09:53:01;;;;;;;5.30;3.55;;;;;;;13.19;87.25;99601.53;4993845;28;20049;-81
2024/03/04 09:56:07;;;;;;;6.05;3.83;;;;;;;13.12;87.79;99598.69;4994047;28;20485;-81
2024/03/04 09:59:13;;;;;;;9.00;3.80;;;;;;;13.19;87.69;99605.09;4994124;28;20049;-79
2024/03/04 10:02:18;;;;;;;4.97;3.13;;;;;;;13.05;88.21;99592.28;4982142;28;20405;-79
2024/03/04 10:05:23;;;;;;;5.70;3.40;;;;;;;13.05;88.33;99595.81;4981827;28;20544;-78
2024/03/04 10:08:28;;;;;;;5.18;3.28;;;;;;;13.07;88.89;99598.38;4994107;28;20053;-80
2024/03/04 10:11:32;;;;;;;5.00;3.35;;;;;;;13.10;88.60;99592.66;4984657;28;20058;-78
2024/03/04 10:15:11;;;;;;;6.78;3.50;;;;;;;13.17;88.68;99601.72;4975103;28;20394;-84
2024/03/04 10:18:17;;;;;;;5.38;3.72;;;;;;;13.22;88.35;99606.59;4974619;28;20062;-82
2024/03/04 10:21:21;;;;;;;4.47;3.08;;;;;;;13.08;89.28;99608.13;4974270;28;20054;-80
2024/03/04 10:24:25;;;;;;;5.50;3.45;;;;;;;13.22;89.31;99598.53;4974251;28;20058;-81
2024/03/04 10:27:32;;;;;;;4.70;3.13;;;;;;;13.18;90.21;99603.44;4974214;28;20049;-81
2024/03/04 10:30:36;;;;;;;4.53;3.10;;;;;;;13.20;90.46;99609.47;4977919;28;20078;-81
2024/03/04 10:33:41;;;;;;;6.68;3.67;;;;;;;13.40;89.47;99604.56;4978163;28;20058;-81
2024/03/04 10:36:48;;;;;;;4.90;3.50;;;;;;;13.24;90.42;99608.13;4982151;28;20073;-80
2024/03/04 10:39:53;;;;;;;6.00;3.17;;;;;;;13.29;89.77;99611.16;4979611;28;20050;-82
2024/03/04 10:42:59;;;;;;;5.68;2.92;;;;;;;13.44;89.25;99611.28;4987514;28;20050;-79
2024/03/04 10:46:04;;;;;;;3.30;2.38;;;;;;;13.52;89.26;99612.13;4981001;28;20066;-83
2024/03/04 10:49:09;;;;;;;3.97;2.58;;;;;;;13.57;89.48;99617.00;4976986;28;20065;-79
2024/03/04 10:52:14;;;;;;;3.47;2.65;;;;;;;13.83;88.51;99617.59;4977555;28;20046;-79
2024/03/04 10:55:21;;;;;;;3.88;2.53;;;;;;;13.77;88.61;99617.47;4977545;28;20049;-83
2024/03/04 10:58:28;;;;;;;3.63;2.63;;;;;;;13.86;88.55;99616.41;4977384;28;20057;-80
2024/03/04 11:01:34;;;;;;;3.83;2.42;;;;;;;14.07;87.89;99622.91;4977487;28;20050;-81
2024/03/04 11:04:41;;;;;;;4.03;2.40;;;;;;;14.22;87.97;99617.66;4977416;28;20053;-80
2024/03/04 11:07:49;;;;;;;5.80;2.80;;;;;;;14.18;88.32;99605.50;4977240;28;20109;-79
2024/03/04 11:11:16;;;;;;;4.28;2.70;;;;;;;14.29;88.42;99605.13;4986239;28;20073;-79
2024/03/04 11:14:32;;;;;;;5.25;3.00;;;;;;;14.53;87.82;99599.63;4996528;28;20049;-79
2024/03/04 11:17:44;;;;;;;3.60;2.47;;;;;;;14.32;88.20;99597.53;4996380;28;20057;-79
2024/03/04 11:20:49;;;;;;;3.60;2.45;;;;;;;14.32;88.43;99602.06;4984522;28;20053;-82
2024/03/04 11:23:54;;;;;;;4.80;3.33;;;;;;;14.32;88.26;99592.13;4996112;28;20054;-82
2024/03/04 11:27:00;;;;;;;4.65;3.38;;;;;;;14.25;88.72;99601.06;4996134;28;20049;-77
2024/03/04 11:30:06;;;;;;;4.45;2.83;;;;;;;14.28;88.17;99590.78;4996039;28;20053;-78
2024/03/04 11:33:37;;;;;;;5.63;2.92;;;;;;;14.28;88.15;99598.03;4995833;28;20406;-78
2024/03/04 11:36:43;;;;;;;4.00;2.80;;;;;;;14.10;89.08;99602.81;4996070;28;20090;-78
2024/03/04 11:39:47;;;;;;;4.53;2.70;;;;;;;14.16;89.21;99600.28;4995384;28;20053;-78
2024/03/04 11:42:52;;;;;;;5.63;2.92;;;;;;;14.14;88.89;99596.94;4995812;28;20061;-78
2024/03/04 11:45:57;;;;;;;5.57;3.13;;;;;;;14.19;89.10;99602.66;4995420;28;20053;-76
2024/03/04 11:49:27;;;;;;;5.95;2.88;;;;;;;14.23;88.83;99587.75;4995561;28;20046;-76
2024/03/04 11:52:38;;;;;;;3.75;2.92;;;;;;;13.90;89.88;99583.50;4983448;28;20054;-76
2024/03/04 11:55:43;;;;;;;4.40;2.85;;;;;;;14.24;89.10;99577.81;4994471;28;20057;-77
2024/03/04 11:58:47;;;;;;;3.83;2.80;;;;;;;14.36;88.47;99570.19;4995441;28;20050;-76
2024/03/04 12:01:52;;;;;;;3.47;2.58;;;;;;;14.34;89.50;99570.38;4995425;28;20054;-78
2024/03/04 12:04:58;;;;;;;3.95;2.22;;;;;;;14.36;89.77;99571.03;4995496;28;20061;-77
2024/03/04 12:08:03;;;;;;;3.30;1.60;;;;;;;14.35;89.91;99569.34;4995326;28;20049;-77
2024/03/04 12:11:08;;;;;;;3.08;1.42;;;;;;;14.38;89.69;99574.38;4982509;28;20057;-78
2024/03/04 12:14:13;;;;;;;2.30;1.35;;;;;;;14.42;89.64;99575.69;4995144;28;20125;-78
2024/03/04 12:17:18;;;;;;;2.50;1.13;;;;;;;14.34;89.72;99578.47;4995137;28;20053;-76
2024/03/04 12:20:25;;;;;;;5.03;1.38;;;;;;;14.16;90.68;99583.25;4995070;28;20050;-79
2024/03/04 12:23:30;;;;;;;3.38;1.40;;;;;;;14.06;90.87;99579.91;4994143;28;20057;-77
2024/03/04 12:26:39;;;;;;;3.33;1.45;;;;;;;14.24;90.62;99578.66;4995160;28;20053;-78
2024/03/04 12:29:44;;;;;;;3.85;2.15;;;;;;;14.28;89.96;99585.38;4995017;28;20374;-76
2024/03/04 12:32:51;;;;;;;3.97;1.63;;;;;;;14.11;90.26;99578.38;4994962;28;20049;-78
2024/03/04 12:36:00;;;;;;;6.45;2.25;;;;;;;14.12;90.88;99581.94;4994825;28;20065;-78
2024/03/04 12:39:04;;;;;;;3.55;1.83;;;;;;;14.26;90.50;99578.47;4982516;28;20045;-77
2024/03/04 12:42:09;;;;;;;4.43;2.58;;;;;;;14.23;90.94;99581.53;4993925;28;20057;-75
2024/03/04 12:45:14;;;;;;;3.85;2.00;;;;;;;14.39;90.44;99573.38;4994589;28;20046;-79
2024/03/04 12:48:20;;;;;;;3.50;2.30;;;;;;;14.46;90.00;99574.34;4994598;28;20049;-78
2024/03/04 12:51:25;;;;;;;8.65;2.25;;;;;;;14.50;90.42;99578.34;4993856;28;20049;-78
2024/03/04 12:54:31;;;;;;;5.15;2.53;;;;;;;14.55;90.21;99583.22;4994985;28;20062;-78
2024/03/04 12:57:36;;;;;;;3.80;2.63;;;;;;;14.39;90.84;99573.38;4994519;28;20073;-78
2024/03/04 13:00:45;;;;;;;5.05;2.70;;;;;;;14.33;91.40;99590.28;4993777;28;20053;-78
2024/03/04 13:03:52;;;;;;;4.43;2.35;;;;;;;14.43;91.22;99595.44;4993581;28;20053;-78
2024/03/04 13:06:56;;;;;;;7.97;3.20;;;;;;;14.35;91.49;99599.03;4994167;28;20057;-78
2024/03/04 13:10:07;;;;;;;5.55;2.85;;;;;;;14.41;91.55;99590.22;4993911;28;20053;-78
2024/03/04 13:13:12;;;;;;;4.80;2.70;;;;;;;14.44;91.68;99587.19;4982245;28;20058;-78
2024/03/04 13:16:17;;;;;;;5.05;2.55;;;;;;;14.49;91.10;99592.91;4993462;28;20054;-78
2024/03/04 13:19:22;;;;;;;4.97;2.90;;;;;;;14.39;91.42;99600.38;4994282;28;20382;-79
2024/03/04 13:22:26;;;;;;;7.97;2.78;;;;;;;14.31;91.89;99590.47;4994297;28;20540;-78
2024/03/04 13:25:31;;;;;;;5.47;2.88;;;;;;;14.26;92.32;99592.81;4994236;28;20053;-80
2024/03/04 13:28:35;;;;;;;9.88;3.63;;;;;;;14.29;92.26;99594.31;4993174;28;20053;-79
2024/03/04 13:31:41;;;;;;;4.85;3.40;;;;;;;14.22;92.80;99587.94;4994142;28;20390;-79
2024/03/04 13:34:46;;;;;;;6.40;3.33;;;;;;;14.10;93.17;99581.25;4993977;28;20061;-79
2024/03/04 13:37:50;;;;;;;5.82;2.75;;;;;;;14.30;92.63;99572.56;4994102;28;20045;-79
2024/03/04 13:40:54;;;;;;;7.95;3.67;;;;;;;14.32;92.43;99566.97;4994131;28;20385;-79
2024/03/04 13:43:59;;;;;;;5.97;3.35;;;;;;;14.44;92.03;99570.13;4994274;28;20507;-78
2024/03/04 13:47:04;;;;;;;7.35;3.65;;;;;;;14.36;92.26;99565.63;4994530;28;20377;-79
2024/03/04 13:50:11;;;;;;;6.40;3.28;;;;;;;14.59;91.60;99561.06;4994065;28;20042;-78
2024/03/04 13:53:18;;;;;;;7.05;3.50;;;;;;;14.44;91.85;99568.28;4993621;28;20065;-78
2024/03/04 13:56:23;;;;;;;6.05;3.60;;;;;;;14.44;92.02;99552.09;4993905;28;20070;-78
2024/03/04 13:59:27;;;;;;;6.32;3.90;;;;;;;14.45;91.79;99552.91;4993115;28;20050;-77
2024/03/04 14:02:32;;;;;;;6.93;4.85;;;;;;;14.27;93.12;99554.00;4994724;28;20469;-77
2024/03/04 14:05:37;;;;;;;7.00;4.03;;;;;;;14.24;93.72;99561.63;4996810;28;20091;-77
2024/03/04 14:08:42;;;;;;;6.25;4.40;;;;;;;14.32;93.76;99561.59;4997509;28;20066;-76
2024/03/04 14:11:50;;;;;;;6.63;4.75;;;;;;;14.13;94.70;99564.69;4996829;28;20053;-77
2024/03/04 14:14:54;;;;;;;6.18;4.45;;;;;;;14.68;92.83;99559.16;4997417;28;20405;-77
2024/03/04 14:18:00;;;;;;;6.28;4.50;;;;;;;14.78;92.16;99559.75;4996585;28;20053;-78
2024/03/04 14:21:05;;;;;;;6.70;4.82;;;;;;;14.77;92.35;99564.31;4997411;28;20062;-76
2024/03/04 14:24:10;;;;;;;5.20;4.03;;;;;;;14.65;92.60;99562.22;4997407;28;20069;-76
2024/03/04 14:27:16;;;;;;;5.07;3.75;;;;;;;14.55;92.79;99570.56;4997145;28;20136;-76
2024/03/04 14:30:21;;;;;;;5.90;4.05;;;;;;;14.49;93.54;99560.50;4997109;28;20069;-75
2024/03/04 14:33:26;;;;;;;5.75;4.05;;;;;;;14.62;92.99;99560.72;4996239;28;20053;-78